Time;durP1;ratioP1;P1;durP2;ratioP2;P2;SDS_P1;SDS_P2;PMS_P1;PMS_P2;Temp;Humidity;BMP_temperature;BMP_pressure;BME280_temperature;BME280_humidity;BME280_pressure;Samples;Min_cycle;Max_cycle;Signal;HPM_P1;HPM_P2
2024/01/29 00:01:14;;;;;;;57.90;22.00;;;;;;;1.37;84.27;102613.42;111741;1203;139267;-75
2024/01/29 00:03:39;;;;;;;53.60;20.50;;;;;;;1.38;84.63;102613.44;111701;1203;99059;-75
2024/01/29 00:06:05;;;;;;;54.80;21.30;;;;;;;1.39;84.52;102608.55;111732;1206;138962;-75
2024/01/29 00:08:30;;;;;;;60.10;21.20;;;;;;;1.36;84.76;102610.40;111783;1203;113415;-75
2024/01/29 00:10:55;;;;;;;55.40;20.50;;;;;;;1.34;84.47;102603.13;111763;1203;99039;-75
2024/01/29 00:13:20;;;;;;;59.80;23.10;;;;;;;1.34;84.56;102605.05;111709;1208;138646;-75
2024/01/29 00:15:46;;;;;;;57.30;22.20;;;;;;;1.31;84.58;102614.15;111769;1208;98957;-75
2024/01/29 00:18:13;;;;;;;52.70;21.80;;;;;;;1.28;84.43;102618.46;111727;1206;139960;-73
2024/01/29 00:20:38;;;;;;;54.50;22.20;;;;;;;1.25;84.59;102619.46;111721;1203;106535;-74
2024/01/29 00:23:04;;;;;;;53.90;22.90;;;;;;;1.23;84.63;102622.20;111770;1203;99060;-74
2024/01/29 00:25:29;;;;;;;53.20;22.70;;;;;;;1.21;84.49;102615.10;111745;1203;139372;-74
2024/01/29 00:27:55;;;;;;;54.10;21.60;;;;;;;1.20;84.77;102612.44;111732;1208;99181;-73
2024/01/29 00:30:20;;;;;;;52.90;23.00;;;;;;;1.20;84.53;102611.05;111662;1203;138785;-74
2024/01/29 00:32:46;;;;;;;53.60;22.80;;;;;;;1.21;84.56;102607.89;111702;1208;98957;-74
2024/01/29 00:35:11;;;;;;;57.80;23.00;;;;;;;1.20;84.41;102608.23;111777;1207;99210;-74
2024/01/29 00:37:36;;;;;;;60.00;22.00;;;;;;;1.19;84.74;102607.48;111644;1207;138406;-74
2024/01/29 00:40:02;;;;;;;67.10;22.70;;;;;;;1.19;84.72;102602.57;111716;1203;98925;-74
2024/01/29 00:42:28;;;;;;;59.50;23.80;;;;;;;1.21;84.75;102606.48;111710;1203;139110;-74
2024/01/29 00:44:53;;;;;;;52.10;22.10;;;;;;;1.18;84.62;102604.65;111711;1208;99520;-74
2024/01/29 00:47:20;;;;;;;64.80;23.50;;;;;;;1.15;84.73;102605.27;111755;1209;98970;-74
2024/01/29 00:49:46;;;;;;;54.80;22.00;;;;;;;1.15;84.66;102607.73;111743;1206;101746;-74
2024/01/29 00:52:11;;;;;;;53.10;23.20;;;;;;;1.16;84.80;102605.98;111772;1207;99841;-73
2024/01/29 00:54:37;;;;;;;58.30;21.50;;;;;;;1.15;84.77;102605.80;111642;1206;138890;-74
2024/01/29 00:57:03;;;;;;;48.60;19.50;;;;;;;1.14;84.75;102604.18;111657;1208;98948;-74
2024/01/29 00:59:28;;;;;;;55.30;22.20;;;;;;;1.13;84.78;102600.28;111642;1206;141232;-74
2024/01/29 01:01:53;;;;;;;52.60;21.00;;;;;;;1.13;84.71;102597.46;111702;1206;98989;-74
2024/01/29 01:04:19;;;;;;;54.00;21.30;;;;;;;1.11;84.82;102595.67;111801;1207;99065;-74
2024/01/29 01:06:45;;;;;;;58.00;21.40;;;;;;;1.10;84.80;102594.03;111616;1208;139279;-73
2024/01/29 01:09:11;;;;;;;58.90;20.60;;;;;;;1.06;84.66;102595.70;111759;1209;98931;-74
2024/01/29 01:11:36;;;;;;;59.90;23.00;;;;;;;1.07;84.83;102594.30;111685;1206;139395;-74
2024/01/29 01:14:02;;;;;;;51.20;21.00;;;;;;;1.05;84.75;102591.79;111701;1206;108999;-74
2024/01/29 01:16:27;;;;;;;47.50;19.90;;;;;;;1.06;84.89;102592.16;111754;1208;99020;-74
2024/01/29 01:18:53;;;;;;;59.90;21.30;;;;;;;1.04;84.81;102592.11;111733;1206;138906;-74
2024/01/29 01:21:19;;;;;;;53.90;20.10;;;;;;;1.03;84.94;102591.55;111926;1205;99699;-74
2024/01/29 01:23:45;;;;;;;55.40;19.10;;;;;;;1.02;84.72;102590.83;111551;1206;139044;-74
2024/01/29 01:26:10;;;;;;;55.50;20.10;;;;;;;1.03;84.92;102595.25;111782;1207;98910;-74
2024/01/29 01:28:35;;;;;;;52.40;19.20;;;;;;;1.01;84.91;102593.98;111760;1208;99041;-73
2024/01/29 01:31:01;;;;;;;46.40;18.90;;;;;;;0.99;84.83;102593.23;111671;1208;139313;-74
2024/01/29 01:33:26;;;;;;;49.10;19.50;;;;;;;0.98;84.85;102594.43;111655;1206;99197;-73
2024/01/29 01:35:51;;;;;;;53.30;19.80;;;;;;;0.97;84.90;102593.52;111617;1206;138991;-73
2024/01/29 01:38:17;;;;;;;45.70;18.50;;;;;;;0.96;84.94;102602.30;111787;1208;99744;-74
2024/01/29 01:40:43;;;;;;;50.70;19.00;;;;;;;0.97;85.03;102597.94;111678;1206;99518;-73
2024/01/29 01:43:20;;;;;;;57.80;20.70;;;;;;;0.96;85.09;102597.36;111722;1207;139020;-73
2024/01/29 01:46:15;;;;;;;49.80;18.80;;;;;;;0.95;84.97;102598.77;111709;1206;100260;-74
2024/01/29 01:48:41;;;;;;;50.20;19.60;;;;;;;0.93;84.99;102591.32;111591;1206;139617;-73
2024/01/29 01:51:06;;;;;;;53.10;20.10;;;;;;;0.92;85.04;102590.56;111728;1206;99216;-74
2024/01/29 01:53:34;;;;;;;47.00;20.40;;;;;;;0.92;85.05;102592.32;111690;1206;139128;-73
2024/01/29 01:56:01;;;;;;;54.70;19.90;;;;;;;0.89;85.01;102593.14;111696;1207;99060;-74
2024/01/29 01:58:28;;;;;;;58.30;21.70;;;;;;;0.89;85.15;102591.38;111754;1206;99047;-73
2024/01/29 02:00:55;;;;;;;46.70;18.90;;;;;;;0.88;84.99;102584.99;111593;1206;138595;-74
2024/01/29 02:03:21;;;;;;;53.00;21.30;;;;;;;0.87;84.92;102586.02;111751;1206;98822;-74
2024/01/29 02:05:46;;;;;;;51.10;20.00;;;;;;;0.85;84.95;102581.77;111690;1208;140179;-74
2024/01/29 02:08:14;;;;;;;57.20;21.60;;;;;;;0.85;84.98;102581.77;111753;1206;112413;-74
2024/01/29 02:10:39;;;;;;;52.90;19.90;;;;;;;0.85;85.05;102579.10;111742;1205;99846;-74
2024/01/29 02:13:12;;;;;;;62.40;22.20;;;;;;;0.85;85.02;102575.23;111628;1204;138958;-74
2024/01/29 02:15:37;;;;;;;51.60;21.30;;;;;;;0.85;85.07;102573.83;111836;1219;100125;-74
2024/01/29 02:18:03;;;;;;;52.00;19.50;;;;;;;0.85;85.01;102572.94;111631;1208;139307;-74
2024/01/29 02:20:29;;;;;;;50.10;20.50;;;;;;;0.83;85.01;102571.48;111842;1206;99052;-75
2024/01/29 02:22:54;;;;;;;52.40;21.30;;;;;;;0.83;85.15;102568.14;111754;1204;106414;-74
2024/01/29 02:25:20;;;;;;;49.70;21.60;;;;;;;0.81;85.00;102565.98;111591;1206;140100;-74
2024/01/29 02:27:45;;;;;;;47.30;20.40;;;;;;;0.79;85.23;102563.83;111723;1205;98957;-74
2024/01/29 02:30:13;;;;;;;56.70;20.70;;;;;;;0.79;85.20;102564.33;111636;1206;138867;-74
2024/01/29 02:32:39;;;;;;;53.40;21.20;;;;;;;0.78;85.14;102562.38;111745;1207;99076;-74
2024/01/29 02:35:05;;;;;;;52.80;20.90;;;;;;;0.78;85.04;102559.36;111722;1208;99439;-74
2024/01/29 02:37:30;;;;;;;50.60;20.70;;;;;;;0.78;85.12;102564.13;111690;1206;139012;-74
2024/01/29 02:39:55;;;;;;;54.00;19.20;;;;;;;0.76;85.16;102556.34;111708;1206;99031;-74
2024/01/29 02:42:21;;;;;;;47.60;19.40;;;;;;;0.76;85.17;102553.33;111583;1208;140076;-74
2024/01/29 02:44:46;;;;;;;55.20;19.90;;;;;;;0.74;85.06;102551.02;111665;1209;99536;-74
2024/01/29 02:47:12;;;;;;;44.30;17.70;;;;;;;0.72;85.03;102546.02;111660;1206;99447;-74
2024/01/29 02:49:37;;;;;;;42.30;17.40;;;;;;;0.70;85.16;102546.86;111636;1206;139919;-74
2024/01/29 02:52:04;;;;;;;42.70;16.00;;;;;;;0.69;85.25;102548.57;111632;1206;99005;-74
2024/01/29 02:54:29;;;;;;;39.40;16.90;;;;;;;0.69;85.10;102549.63;111580;1206;139200;-75
2024/01/29 02:56:55;;;;;;;37.70;14.50;;;;;;;0.69;85.26;102544.70;111742;1206;99046;-74
2024/01/29 02:59:20;;;;;;;39.40;16.20;;;;;;;0.68;85.16;102536.06;111671;1206;98993;-74
2024/01/29 03:01:45;;;;;;;40.70;15.60;;;;;;;0.69;85.23;102532.39;111600;1203;139141;-74
2024/01/29 03:04:10;;;;;;;46.50;15.00;;;;;;;0.68;85.20;102533.77;111803;1203;98916;-74
2024/01/29 03:06:37;;;;;;;32.90;14.20;;;;;;;0.65;85.19;102534.41;111570;1206;140532;-75
2024/01/29 03:09:04;;;;;;;34.30;13.50;;;;;;;0.64;85.21;102534.73;111667;1206;99059;-74
2024/01/29 03:11:29;;;;;;;41.10;13.90;;;;;;;0.64;85.32;102535.59;111510;1206;140548;-74
2024/01/29 03:13:54;;;;;;;45.50;15.10;;;;;;;0.63;85.25;102537.85;111626;1206;98951;-75
2024/01/29 03:16:20;;;;;;;39.10;14.50;;;;;;;0.63;85.34;102535.56;111764;1208;98999;-74
2024/01/29 03:18:45;;;;;;;40.30;15.50;;;;;;;0.62;85.33;102538.35;111515;1206;139651;-74
2024/01/29 03:21:13;;;;;;;36.40;14.90;;;;;;;0.62;85.31;102538.70;111747;1208;98948;-75
2024/01/29 03:23:38;;;;;;;36.20;14.40;;;;;;;0.61;85.30;102537.11;111594;1208;138984;-74
2024/01/29 03:26:04;;;;;;;38.20;13.80;;;;;;;0.62;85.33;102535.90;111610;1205;99126;-74
2024/01/29 03:28:29;;;;;;;36.40;14.60;;;;;;;0.62;85.31;102535.19;111762;1206;98957;-74
2024/01/29 03:30:54;;;;;;;34.40;13.00;;;;;;;0.61;85.31;102531.29;111501;1208;138752;-74
2024/01/29 03:33:19;;;;;;;30.40;13.30;;;;;;;0.60;85.32;102525.45;111733;1207;97729;-74
2024/01/29 03:35:44;;;;;;;30.60;13.10;;;;;;;0.58;85.09;102521.53;111518;1206;139799;-74
2024/01/29 03:38:11;;;;;;;42.20;14.00;;;;;;;0.55;85.30;102519.71;111771;1204;97778;-74
2024/01/29 03:40:37;;;;;;;36.40;14.40;;;;;;;0.53;85.36;102521.23;111683;1206;99413;-74
2024/01/29 03:43:02;;;;;;;31.80;12.80;;;;;;;0.52;85.25;102517.13;111529;1209;138652;-74
2024/01/29 03:45:27;;;;;;;32.10;14.00;;;;;;;0.50;85.27;102514.45;111741;1208;98695;-74
2024/01/29 03:47:53;;;;;;;36.50;14.30;;;;;;;0.48;85.27;102511.23;111516;1206;138923;-74
2024/01/29 03:50:18;;;;;;;33.80;13.10;;;;;;;0.48;85.26;102507.37;111729;1206;98941;-74
2024/01/29 03:52:44;;;;;;;37.10;14.00;;;;;;;0.49;85.29;102510.89;111602;1209;99044;-73
2024/01/29 03:55:10;;;;;;;34.70;12.70;;;;;;;0.47;85.25;102514.88;111575;1206;139149;-74
2024/01/29 03:57:37;;;;;;;39.50;14.70;;;;;;;0.47;85.37;102512.24;111717;1206;99012;-74
2024/01/29 04:00:07;;;;;;;29.40;13.40;;;;;;;0.46;85.36;102507.14;111480;1207;138799;-74
2024/01/29 04:02:33;;;;;;;32.50;14.40;;;;;;;0.46;85.36;102506.59;111642;1208;102178;-74
2024/01/29 04:04:58;;;;;;;39.70;13.80;;;;;;;0.44;85.43;102504.63;111659;1206;98934;-74
2024/01/29 04:07:23;;;;;;;30.30;13.20;;;;;;;0.45;85.27;102501.83;111633;1206;138768;-73
2024/01/29 04:09:48;;;;;;;31.40;12.90;;;;;;;0.47;85.38;102500.29;111607;1208;98922;-74
2024/01/29 04:12:14;;;;;;;32.40;12.50;;;;;;;0.46;85.30;102497.97;111567;1208;139206;-73
2024/01/29 04:14:39;;;;;;;34.10;13.30;;;;;;;0.46;85.38;102497.98;111677;1205;98953;-73
2024/01/29 04:17:06;;;;;;;37.10;14.40;;;;;;;0.46;85.38;102500.25;111744;1205;99584;-73
2024/01/29 04:19:32;;;;;;;34.90;12.40;;;;;;;0.45;85.34;102501.12;111557;1206;138703;-74
2024/01/29 04:21:57;;;;;;;37.10;12.90;;;;;;;0.45;85.20;102500.78;111698;1206;99011;-74
2024/01/29 04:24:23;;;;;;;36.50;13.70;;;;;;;0.45;85.45;102500.08;111610;1208;139178;-74
2024/01/29 04:26:48;;;;;;;34.50;12.70;;;;;;;0.47;85.54;102502.23;111635;1206;99173;-74
2024/01/29 04:29:14;;;;;;;39.20;14.20;;;;;;;0.46;85.56;102502.56;111694;1206;99107;-74
2024/01/29 04:31:40;;;;;;;35.10;13.60;;;;;;;0.46;85.34;102502.20;111499;1206;138918;-75
2024/01/29 04:34:05;;;;;;;38.30;14.00;;;;;;;0.46;85.37;102501.48;111692;1206;99021;-74
2024/01/29 04:36:30;;;;;;;30.00;13.10;;;;;;;0.47;85.51;102501.87;111629;1209;139024;-74
2024/01/29 04:38:56;;;;;;;32.90;12.80;;;;;;;0.48;85.59;102504.71;111659;1203;98978;-74
2024/01/29 04:41:22;;;;;;;32.10;13.10;;;;;;;0.47;85.42;102505.21;111697;1206;99036;-74
2024/01/29 04:43:48;;;;;;;32.60;13.90;;;;;;;0.45;85.45;102504.48;111599;1208;138608;-74
2024/01/29 04:46:15;;;;;;;43.90;15.10;;;;;;;0.45;85.36;102509.73;111659;1206;98925;-74
2024/01/29 04:48:40;;;;;;;33.20;13.40;;;;;;;0.44;85.38;102509.00;111518;1208;138676;-74
2024/01/29 04:51:07;;;;;;;34.70;13.50;;;;;;;0.43;85.47;102510.04;111738;1208;98938;-74
2024/01/29 04:53:33;;;;;;;35.00;13.90;;;;;;;0.42;85.44;102506.50;111571;1206;138947;-74
2024/01/29 04:56:01;;;;;;;32.60;13.40;;;;;;;0.42;85.49;102510.00;111553;1208;99030;-74
2024/01/29 04:58:26;;;;;;;43.90;14.20;;;;;;;0.43;85.45;102509.50;111700;1208;98964;-74
2024/01/29 05:00:51;;;;;;;33.40;12.90;;;;;;;0.42;85.47;102505.98;111589;1206;139972;-75
2024/01/29 05:03:16;;;;;;;40.00;13.90;;;;;;;0.41;85.51;102500.84;111634;1208;99034;-74
2024/01/29 05:05:42;;;;;;;33.50;13.00;;;;;;;0.41;85.58;102496.60;111498;1206;138918;-74
2024/01/29 05:08:07;;;;;;;36.70;14.90;;;;;;;0.41;85.58;102495.73;111647;1206;99030;-74
2024/01/29 05:10:32;;;;;;;35.20;12.80;;;;;;;0.41;85.57;102503.29;111692;1215;99021;-74
2024/01/29 05:12:57;;;;;;;41.60;14.40;;;;;;;0.38;85.44;102503.73;111577;1208;140528;-74
2024/01/29 05:15:23;;;;;;;33.00;13.10;;;;;;;0.38;85.58;102502.48;111693;1208;98939;-74
2024/01/29 05:17:48;;;;;;;36.50;13.30;;;;;;;0.36;85.44;102504.75;111542;1208;139096;-74
2024/01/29 05:20:13;;;;;;;35.10;13.40;;;;;;;0.35;85.48;102504.17;111655;1205;98249;-74
2024/01/29 05:22:40;;;;;;;37.70;13.60;;;;;;;0.31;85.42;102505.84;111638;1206;99040;-74
2024/01/29 05:25:05;;;;;;;33.40;13.30;;;;;;;0.31;85.42;102504.78;111541;1206;139119;-74
2024/01/29 05:27:31;;;;;;;31.80;14.10;;;;;;;0.31;85.53;102503.90;111689;1209;98658;-74
2024/01/29 05:29:56;;;;;;;39.80;14.60;;;;;;;0.31;85.48;102506.02;111476;1206;139131;-74
2024/01/29 05:32:21;;;;;;;31.20;12.50;;;;;;;0.32;85.48;102503.23;111750;1206;98989;-74
2024/01/29 05:34:47;;;;;;;48.50;15.10;;;;;;;0.32;85.53;102501.83;111619;1209;98913;-74
2024/01/29 05:37:12;;;;;;;37.80;15.90;;;;;;;0.34;85.50;102497.13;111603;1206;139137;-74
2024/01/29 05:39:37;;;;;;;45.30;15.80;;;;;;;0.34;85.48;102489.73;111682;1208;99033;-74
2024/01/29 05:42:03;;;;;;;37.40;14.40;;;;;;;0.34;85.53;102488.85;111575;1204;138933;-74
2024/01/29 05:44:28;;;;;;;37.10;14.70;;;;;;;0.32;85.48;102488.63;111700;1208;98930;-74
2024/01/29 05:46:53;;;;;;;35.80;14.50;;;;;;;0.32;85.52;102490.21;111658;1209;99044;-74
2024/01/29 05:49:18;;;;;;;35.90;15.50;;;;;;;0.32;85.54;102488.64;111639;1203;141811;-74
2024/01/29 05:51:44;;;;;;;40.50;15.70;;;;;;;0.33;85.61;102492.71;111685;1218;99021;-74
2024/01/29 05:54:09;;;;;;;39.30;15.50;;;;;;;0.33;85.56;102493.59;111585;1208;139186;-74
2024/01/29 05:56:40;;;;;;;42.30;15.60;;;;;;;0.33;85.57;102499.58;111731;1209;98941;-74
2024/01/29 05:59:05;;;;;;;44.70;17.40;;;;;;;0.33;85.63;102498.52;111714;1206;99123;-74
2024/01/29 06:01:30;;;;;;;35.50;15.60;;;;;;;0.31;85.61;102501.27;111494;1206;138705;-75
2024/01/29 06:03:55;;;;;;;34.70;15.10;;;;;;;0.30;85.46;102497.38;111710;1206;99049;-75
2024/01/29 06:06:21;;;;;;;34.80;15.10;;;;;;;0.29;85.54;102497.68;111555;1208;141072;-74
2024/01/29 06:08:46;;;;;;;45.60;15.60;;;;;;;0.28;85.52;102494.69;111701;1206;99037;-75
2024/01/29 06:11:11;;;;;;;43.00;14.50;;;;;;;0.28;85.42;102500.29;111699;1206;99618;-75
2024/01/29 06:13:38;;;;;;;38.70;15.90;;;;;;;0.26;85.58;102500.08;111633;1208;140340;-75
2024/01/29 06:16:04;;;;;;;44.70;14.70;;;;;;;0.25;85.50;102497.04;111669;1206;99433;-74
2024/01/29 06:18:29;;;;;;;40.60;14.90;;;;;;;0.26;85.61;102496.19;111561;1207;138777;-74
2024/01/29 06:20:54;;;;;;;38.00;17.20;;;;;;;0.24;85.56;102498.08;111684;1208;99033;-75
2024/01/29 06:23:19;;;;;;;44.20;16.80;;;;;;;0.25;85.57;102496.86;111642;1206;98979;-74
2024/01/29 06:25:45;;;;;;;47.30;16.30;;;;;;;0.25;85.59;102496.01;111333;1206;138678;-74
2024/01/29 06:28:10;;;;;;;34.50;14.50;;;;;;;0.26;85.67;102494.95;111678;1206;98954;-73
2024/01/29 06:30:35;;;;;;;39.00;17.50;;;;;;;0.26;85.53;102499.52;111546;1204;138709;-74
2024/01/29 06:33:00;;;;;;;46.60;16.40;;;;;;;0.27;85.63;102499.38;111768;1206;99030;-74
2024/01/29 06:35:26;;;;;;;43.10;16.80;;;;;;;0.27;85.72;102499.38;111617;1208;139889;-73
2024/01/29 06:37:51;;;;;;;41.90;17.00;;;;;;;0.28;85.72;102500.29;111800;1203;98963;-74
2024/01/29 06:40:16;;;;;;;40.50;17.20;;;;;;;0.27;85.79;102500.98;111680;1208;98488;-74
2024/01/29 06:42:41;;;;;;;39.40;16.20;;;;;;;0.26;85.61;102506.05;111689;1206;138774;-74
2024/01/29 06:45:07;;;;;;;38.10;16.30;;;;;;;0.25;85.70;102506.90;111685;1209;99421;-74
2024/01/29 06:47:33;;;;;;;35.90;16.80;;;;;;;0.25;85.64;102506.20;111535;1203;139359;-73
2024/01/29 06:49:58;;;;;;;39.00;17.30;;;;;;;0.24;85.50;102500.72;111648;1209;98925;-74
2024/01/29 06:52:27;;;;;;;38.30;16.20;;;;;;;0.26;85.65;102503.23;111676;1203;99005;-74
2024/01/29 06:54:52;;;;;;;37.40;15.80;;;;;;;0.27;85.78;102503.97;111589;1209;138780;-74
2024/01/29 06:57:18;;;;;;;43.80;17.10;;;;;;;0.28;85.64;102509.10;111637;1203;99046;-74
2024/01/29 06:59:43;;;;;;;38.50;17.30;;;;;;;0.29;85.74;102514.21;111647;1208;139557;-74
2024/01/29 07:02:08;;;;;;;38.40;16.30;;;;;;;0.29;85.71;102510.89;111623;1209;99215;-74
2024/01/29 07:04:34;;;;;;;39.70;17.40;;;;;;;0.31;85.81;102512.51;111741;1208;99037;-74
2024/01/29 07:07:00;;;;;;;46.40;17.70;;;;;;;0.31;85.76;102507.95;111548;1205;139158;-75
2024/01/29 07:09:25;;;;;;;47.10;17.60;;;;;;;0.32;85.72;102502.52;111233;1208;98976;-75
2024/01/29 07:11:50;;;;;;;39.50;16.80;;;;;;;0.33;85.78;102504.83;111049;1203;139320;-75
2024/01/29 07:14:16;;;;;;;42.80;17.10;;;;;;;0.34;85.99;102508.38;111112;1203;98941;-73
2024/01/29 07:16:41;;;;;;;51.20;19.50;;;;;;;0.35;85.74;102509.10;111105;1203;98928;-75
2024/01/29 07:19:06;;;;;;;45.20;19.00;;;;;;;0.36;85.77;102504.20;111032;1203;139352;-75
2024/01/29 07:21:32;;;;;;;43.70;17.60;;;;;;;0.37;85.98;102498.77;111227;1218;100795;-75
2024/01/29 07:23:57;;;;;;;38.90;16.70;;;;;;;0.38;85.78;102492.65;111032;1208;139429;-74
2024/01/29 07:26:24;;;;;;;45.80;20.40;;;;;;;0.36;85.85;102485.56;111354;1203;98935;-74
2024/01/29 07:28:49;;;;;;;45.20;19.30;;;;;;;0.41;85.86;102483.42;111608;1209;98929;-74
2024/01/29 07:31:15;;;;;;;53.70;23.20;;;;;;;0.43;85.98;102482.58;111169;1209;139728;-74
2024/01/29 07:33:40;;;;;;;48.10;19.00;;;;;;;0.45;86.11;102482.13;110993;1207;99270;-76
2024/01/29 07:36:05;;;;;;;45.30;18.70;;;;;;;0.46;86.07;102486.19;111082;1208;139038;-76
2024/01/29 07:38:31;;;;;;;50.50;20.80;;;;;;;0.46;85.85;102486.02;111567;1205;100249;-76
2024/01/29 07:40:56;;;;;;;42.50;19.30;;;;;;;0.46;86.04;102485.33;111675;1208;99039;-75
2024/01/29 07:43:21;;;;;;;48.10;20.20;;;;;;;0.48;86.14;102486.42;111643;1206;139318;-76
2024/01/29 07:45:46;;;;;;;43.60;19.20;;;;;;;0.49;86.00;102486.81;111709;1206;99465;-76
2024/01/29 07:48:12;;;;;;;45.70;19.30;;;;;;;0.51;85.92;102491.98;111625;1206;140323;-76
2024/01/29 07:50:37;;;;;;;50.30;19.40;;;;;;;0.53;86.03;102486.57;111674;1208;100145;-76
2024/01/29 07:53:03;;;;;;;46.20;20.30;;;;;;;0.55;86.15;102482.04;111690;1208;99005;-76
2024/01/29 07:55:28;;;;;;;51.40;19.10;;;;;;;0.57;86.09;102485.27;111732;1208;140083;-76
2024/01/29 07:57:53;;;;;;;47.60;19.50;;;;;;;0.60;86.01;102481.83;111717;1206;99367;-76
2024/01/29 08:00:20;;;;;;;47.40;21.30;;;;;;;0.62;86.08;102482.08;111540;1206;138953;-76
2024/01/29 08:02:45;;;;;;;47.20;21.20;;;;;;;0.63;86.09;102475.06;111685;1206;111184;-76
2024/01/29 08:05:10;;;;;;;55.50;21.00;;;;;;;0.66;86.07;102477.59;111670;1206;98960;-76
2024/01/29 08:07:37;;;;;;;47.40;20.70;;;;;;;0.69;86.20;102474.50;111588;1204;138851;-76
2024/01/29 08:10:03;;;;;;;60.50;22.50;;;;;;;0.71;86.16;102474.91;111639;1205;99813;-76
2024/01/29 08:12:28;;;;;;;56.40;23.40;;;;;;;0.73;86.17;102469.69;111526;1209;138821;-76
2024/01/29 08:14:54;;;;;;;54.20;22.30;;;;;;;0.75;86.17;102467.10;111608;1206;99024;-76
2024/01/29 08:17:19;;;;;;;57.90;22.00;;;;;;;0.78;86.26;102469.83;111460;1206;99026;-76
2024/01/29 08:19:45;;;;;;;47.90;20.00;;;;;;;0.80;86.25;102467.23;111414;1206;138673;-76
2024/01/29 08:22:10;;;;;;;55.60;21.80;;;;;;;0.81;86.25;102465.51;111596;1208;99470;-76
2024/01/29 08:24:35;;;;;;;50.50;21.50;;;;;;;0.86;86.39;102466.15;111371;1206;138842;-76
2024/01/29 08:27:00;;;;;;;47.30;21.60;;;;;;;0.90;86.37;102465.72;111718;1206;98905;-75
2024/01/29 08:29:26;;;;;;;59.90;23.20;;;;;;;0.93;86.33;102464.58;111585;1208;138854;-75
2024/01/29 08:31:51;;;;;;;50.20;22.40;;;;;;;0.97;86.37;102465.56;111621;1204;99062;-76
2024/01/29 08:34:17;;;;;;;48.10;20.30;;;;;;;1.01;86.27;102467.24;111753;1208;98870;-76
2024/01/29 08:36:42;;;;;;;51.80;21.90;;;;;;;1.05;86.34;102467.69;111594;1206;138696;-76
2024/01/29 08:39:08;;;;;;;55.60;21.50;;;;;;;1.07;86.53;102465.27;111744;1206;99458;-76
2024/01/29 08:41:33;;;;;;;60.10;20.90;;;;;;;1.09;86.41;102470.08;111640;1208;139289;-74
2024/01/29 08:43:59;;;;;;;48.80;21.20;;;;;;;1.12;86.39;102472.26;111680;1208;98915;-74
2024/01/29 08:46:24;;;;;;;52.10;22.20;;;;;;;1.15;86.46;102470.04;111787;1205;99018;-74
2024/01/29 08:48:49;;;;;;;55.60;24.10;;;;;;;1.18;86.50;102470.83;111560;1206;139305;-73
2024/01/29 08:51:14;;;;;;;65.10;25.20;;;;;;;1.23;86.62;102473.07;111770;1206;99022;-74
2024/01/29 08:53:40;;;;;;;57.90;23.20;;;;;;;1.28;86.48;102473.73;111633;1208;139482;-73
2024/01/29 08:56:09;;;;;;;57.80;23.90;;;;;;;1.32;86.48;102471.15;111782;1209;98898;-74
2024/01/29 08:58:35;;;;;;;62.70;25.10;;;;;;;1.36;86.72;102473.89;111749;1208;107479;-74
2024/01/29 09:01:00;;;;;;;61.00;22.70;;;;;;;1.38;86.60;102474.48;111585;1206;138951;-74
2024/01/29 09:03:27;;;;;;;59.10;24.30;;;;;;;1.41;86.67;102471.73;111812;1206;98921;-73
2024/01/29 09:05:52;;;;;;;62.00;24.60;;;;;;;1.47;86.65;102473.45;111589;1207;139478;-73
2024/01/29 09:08:18;;;;;;;63.60;22.60;;;;;;;1.50;86.72;102467.17;111700;1206;98896;-75
2024/01/29 09:10:43;;;;;;;53.10;22.30;;;;;;;1.53;86.72;102465.15;111670;1206;99023;-74
2024/01/29 09:13:08;;;;;;;65.80;23.40;;;;;;;1.57;86.84;102461.36;111619;1205;138842;-74
2024/01/29 09:15:33;;;;;;;52.80;23.30;;;;;;;1.61;86.73;102460.22;111724;1206;99192;-73
2024/01/29 09:17:59;;;;;;;54.90;23.00;;;;;;;1.65;86.75;102463.46;111467;1209;139110;-74
2024/01/29 09:20:27;;;;;;;45.40;21.20;;;;;;;1.69;86.75;102465.84;111788;1206;99057;-75
2024/01/29 09:22:52;;;;;;;60.10;24.10;;;;;;;1.72;86.74;102469.80;111674;1209;98483;-75
2024/01/29 09:25:18;;;;;;;57.30;22.60;;;;;;;1.76;86.77;102472.35;111611;1208;138805;-74
2024/01/29 09:27:43;;;;;;;52.50;22.00;;;;;;;1.81;86.68;102470.88;111633;1208;98941;-74
2024/01/29 09:30:09;;;;;;;49.50;22.30;;;;;;;1.85;86.77;102468.84;111577;1206;142974;-75
2024/01/29 09:32:34;;;;;;;49.60;21.90;;;;;;;1.88;86.76;102470.51;111824;1209;100816;-73
2024/01/29 09:35:00;;;;;;;58.90;22.50;;;;;;;1.92;86.76;102465.81;111631;1206;99050;-74
2024/01/29 09:37:25;;;;;;;61.40;24.20;;;;;;;1.97;86.80;102463.45;111615;1208;139265;-73
2024/01/29 09:39:51;;;;;;;67.40;30.90;;;;;;;2.01;86.81;102462.83;111629;1208;98988;-73
2024/01/29 09:42:18;;;;;;;56.90;26.00;;;;;;;2.04;86.65;102468.17;111552;1206;138825;-75
2024/01/29 09:44:45;;;;;;;51.70;23.80;;;;;;;2.08;86.72;102470.91;111644;1208;99027;-75
2024/01/29 09:47:12;;;;;;;51.50;22.60;;;;;;;2.11;86.91;102471.68;111659;1204;99064;-76
2024/01/29 09:49:38;;;;;;;56.50;22.80;;;;;;;2.15;86.85;102471.05;111617;1208;139551;-73
2024/01/29 09:52:05;;;;;;;50.20;24.30;;;;;;;2.18;86.91;102471.48;111050;1206;99101;-71
2024/01/29 09:54:32;;;;;;;48.80;22.10;;;;;;;2.22;86.85;102472.27;111391;1217;138764;-74
2024/01/29 09:56:57;;;;;;;48.10;22.30;;;;;;;2.25;86.91;102472.48;110962;1208;99059;-73
2024/01/29 09:59:22;;;;;;;52.70;22.60;;;;;;;2.27;86.93;102469.72;111015;1208;98999;-74
2024/01/29 10:01:49;;;;;;;54.90;21.20;;;;;;;2.30;86.90;102472.42;110938;1205;139218;-73
2024/01/29 10:04:15;;;;;;;53.20;23.10;;;;;;;2.36;86.98;102468.65;111004;1210;98941;-74
2024/01/29 10:06:40;;;;;;;46.80;20.80;;;;;;;2.42;86.93;102467.90;110806;1208;139046;-74
2024/01/29 10:09:06;;;;;;;43.40;21.30;;;;;;;2.46;86.93;102465.66;111023;1210;99050;-72
2024/01/29 10:11:31;;;;;;;47.30;22.60;;;;;;;2.50;86.99;102461.68;110937;1208;139000;-72
2024/01/29 10:13:58;;;;;;;42.00;19.40;;;;;;;2.52;86.87;102460.67;111280;1208;98952;-75
2024/01/29 10:16:23;;;;;;;46.60;20.50;;;;;;;2.53;86.90;102461.77;111738;1206;99370;-74
2024/01/29 10:18:58;;;;;;;49.30;20.50;;;;;;;2.57;87.15;102459.52;111628;1203;138657;-75
2024/01/29 10:21:24;;;;;;;49.50;20.00;;;;;;;2.62;86.86;102456.59;111757;1203;99444;-74
2024/01/29 10:23:56;;;;;;;48.80;20.70;;;;;;;2.68;86.95;102456.86;111522;1203;140388;-73
2024/01/29 10:26:23;;;;;;;43.80;20.70;;;;;;;2.71;87.06;102453.39;111701;1208;99008;-74
2024/01/29 10:29:11;;;;;;;47.00;21.00;;;;;;;2.76;86.94;102449.97;111712;1207;97971;-73
2024/01/29 10:31:38;;;;;;;47.70;20.00;;;;;;;2.80;87.01;102447.20;111527;1208;138663;-73
2024/01/29 10:34:05;;;;;;;48.30;20.10;;;;;;;2.85;87.00;102438.46;111668;1204;98857;-72
2024/01/29 10:36:30;;;;;;;46.70;20.00;;;;;;;2.88;86.97;102437.98;111702;1209;139898;-73
2024/01/29 10:38:58;;;;;;;41.80;19.40;;;;;;;2.90;86.96;102439.08;111767;1208;99005;-73
2024/01/29 10:41:25;;;;;;;46.20;20.10;;;;;;;2.91;86.88;102435.39;111775;1205;111411;-74
2024/01/29 10:43:52;;;;;;;44.60;20.20;;;;;;;2.95;87.11;102428.91;111667;1206;138792;-74
2024/01/29 10:46:22;;;;;;;45.20;20.10;;;;;;;3.02;87.01;102422.66;111747;1209;98934;-71
2024/01/29 10:48:50;;;;;;;52.00;20.70;;;;;;;3.07;87.19;102420.45;111572;1208;139721;-74
2024/01/29 10:51:16;;;;;;;51.80;20.80;;;;;;;3.12;87.14;102420.00;111736;1208;98860;-73
2024/01/29 10:53:44;;;;;;;51.20;21.30;;;;;;;3.16;87.12;102415.64;111685;1207;138969;-73
2024/01/29 10:56:10;;;;;;;51.10;20.70;;;;;;;3.21;86.98;102416.61;111803;1203;97759;-74
2024/01/29 10:58:37;;;;;;;47.20;20.10;;;;;;;3.26;87.03;102412.63;111807;1208;98953;-73
2024/01/29 11:01:04;;;;;;;49.00;20.70;;;;;;;3.34;87.18;102412.55;111642;1208;138662;-73